createdAt,value
2023-03-19T00:13:04.160Z,46.87
2023-03-19T00:28:04.378Z,50.62
2023-03-19T00:43:04.468Z,51.45
2023-03-19T00:58:04.792Z,50.85
2023-03-19T01:13:04.763Z,48.69
2023-03-19T01:28:05.797Z,41.67
2023-03-19T01:43:05.976Z,44.57
2023-03-19T01:58:06.119Z,41.48
2023-03-19T02:13:07.166Z,41.48
2023-03-19T02:28:08.275Z,34.10
2023-03-19T02:43:08.889Z,28.92
2023-03-19T02:58:09.906Z,26.42
2023-03-19T03:13:10.059Z,25.58
2023-03-19T03:28:11.093Z,22.86
2023-03-19T03:43:11.265Z,24.52
2023-03-19T03:58:11.888Z,25.63
2023-03-19T04:13:11.914Z,26.98
2023-03-19T04:28:11.574Z,30.27
2023-03-19T04:43:12.186Z,30.48
2023-03-19T04:58:12.781Z,28.19
2023-03-19T05:13:13.787Z,28.38
2023-03-19T05:28:14.433Z,30.23
2023-03-19T05:43:14.665Z,21.45
2023-03-19T05:58:15.618Z,18.46
2023-03-19T06:13:15.743Z,17.84
2023-03-19T06:28:16.429Z,16.49
2023-03-19T06:43:17.401Z,14.84
2023-03-19T06:58:18.559Z,13.70
2023-03-19T07:13:19.210Z,13.18
2023-03-19T07:28:19.790Z,12.45
2023-03-19T07:43:22.863Z,12.96
2023-03-19T07:58:24.030Z,11.72
2023-03-19T08:13:24.970Z,10.78
2023-03-19T08:28:25.576Z,7.80
2023-03-19T08:43:25.287Z,8.32
2023-03-19T08:58:26.454Z,8.83
2023-03-19T09:13:27.510Z,6.77
2023-03-19T09:28:28.141Z,3.89
2023-03-19T09:43:28.239Z,5.43
2023-03-19T09:58:28.266Z,8.61
2023-03-19T10:13:29.013Z,10.85
2023-03-19T10:28:29.104Z,31.28
2023-03-19T10:43:29.912Z,30.23
2023-03-19T10:58:30.699Z,47.14
2023-03-19T11:13:30.812Z,55.46
2023-03-19T11:28:31.284Z,58.53
2023-03-19T11:43:31.530Z,82.21
2023-03-19T11:58:31.636Z,83.56
2023-03-19T12:13:32.086Z,85.86
2023-03-19T12:28:31.805Z,89.37
2023-03-19T12:43:32.447Z,97.07
2023-03-19T12:58:33.513Z,96.34
2023-03-19T13:13:33.708Z,91.85
2023-03-19T13:28:33.354Z,93.46
2023-03-19T13:43:33.943Z,90.63
2023-03-19T13:58:33.976Z,90.65
2023-03-19T14:13:34.143Z,88.93
2023-03-19T14:28:34.801Z,86.63
2023-03-19T14:43:35.354Z,82.82
2023-03-19T14:58:35.863Z,79.60
2023-03-19T15:13:35.488Z,79.81
2023-03-19T15:28:38.247Z,81.36
2023-03-19T15:43:39.503Z,83.36
2023-03-19T15:58:40.322Z,84.51
2023-03-19T16:13:40.865Z,88.35
2023-03-19T16:28:44.100Z,88.43
2023-03-19T16:43:45.718Z,91.51
2023-03-19T16:58:45.830Z,95.58
2023-03-19T17:13:45.976Z,97.60
2023-03-19T17:28:46.178Z,96.96
2023-03-19T17:43:46.402Z,93.98
2023-03-19T17:58:48.602Z,91.31
2023-03-19T18:13:50.888Z,88.37
2023-03-19T18:28:51.393Z,83.84
2023-03-19T18:43:52.247Z,77.94
2023-03-19T18:58:52.923Z,65.58
2023-03-19T19:13:56.153Z,68.10
2023-03-19T19:28:57.500Z,71.93
2023-03-19T19:43:58.238Z,68.24
2023-03-19T19:58:58.495Z,58.92
2023-03-19T20:13:59.050Z,51.84
2023-03-19T20:28:59.950Z,44.14
2023-03-19T20:44:00.366Z,37.68
2023-03-19T20:59:00.419Z,36.13
2023-03-19T21:14:00.521Z,35.83
2023-03-19T21:29:00.690Z,33.04
2023-03-19T21:44:01.353Z,31.20
2023-03-19T21:59:01.983Z,42.77
2023-03-19T22:14:02.992Z,53.38
2023-03-19T22:29:03.660Z,59.73
2023-03-19T22:44:03.864Z,58.03
2023-03-19T22:59:04.137Z,47.87
2023-03-19T23:14:04.983Z,49.66
2023-03-19T23:29:07.050Z,51.98
2023-03-19T23:44:07.171Z,44.89
2023-03-19T23:59:07.435Z,40.67
